Time;durP1;ratioP1;P1;durP2;ratioP2;P2;SDS_P1;SDS_P2;PMS_P1;PMS_P2;Temp;Humidity;BMP_temperature;BMP_pressure;BME280_temperature;BME280_humidity;BME280_pressure;Samples;Min_cycle;Max_cycle;Signal;HPM_P1;HPM_P2
2021/12/12 00:02:07;;;;;;;82.83;43.60;;;;;;;3.52;67.60;101826.25;4956214;28;20528;-44
2021/12/12 00:04:37;;;;;;;73.40;40.13;;;;;;;3.53;66.53;101833.19;4955900;28;20476;-45
2021/12/12 00:07:09;;;;;;;64.17;41.70;;;;;;;3.51;65.99;101842.19;4955722;28;20435;-45
2021/12/12 00:09:41;;;;;;;66.40;41.47;;;;;;;3.53;65.21;101842.88;4955902;28;20794;-44
2021/12/12 00:12:16;;;;;;;62.33;40.80;;;;;;;3.50;64.99;101841.34;4955082;28;20455;-44
2021/12/12 00:14:44;;;;;;;63.00;40.73;;;;;;;3.46;65.14;101839.94;4956143;28;20428;-44
2021/12/12 00:17:13;;;;;;;61.03;38.40;;;;;;;3.44;64.69;101844.47;4956005;28;20440;-45
2021/12/12 00:19:42;;;;;;;72.87;41.03;;;;;;;3.41;65.10;101836.81;4956223;28;20432;-45
2021/12/12 00:22:14;;;;;;;68.63;39.37;;;;;;;3.43;63.71;101844.59;4956109;28;20458;-44
2021/12/12 00:24:42;;;;;;;75.93;41.47;;;;;;;3.44;64.10;101835.72;4956030;28;20865;-44
2021/12/12 00:27:10;;;;;;;68.90;38.77;;;;;;;3.38;65.13;101841.47;4955470;28;20446;-44
2021/12/12 00:29:38;;;;;;;71.60;37.83;;;;;;;3.35;66.45;101842.56;4956205;28;20451;-42
2021/12/12 00:32:10;;;;;;;68.60;38.20;;;;;;;3.30;65.86;101850.03;4974877;28;20454;-46
2021/12/12 00:34:43;;;;;;;78.67;39.50;;;;;;;3.25;64.67;101850.41;4975075;28;20434;-44
2021/12/12 00:37:11;;;;;;;71.87;35.37;;;;;;;3.18;63.71;101840.47;4974483;28;20435;-45
2021/12/12 00:39:44;;;;;;;64.97;33.83;;;;;;;3.15;62.73;101845.97;4959836;28;20462;-43
2021/12/12 00:42:17;;;;;;;72.93;35.30;;;;;;;3.11;61.21;101848.00;4955394;28;20809;-42
2021/12/12 00:44:48;;;;;;;89.33;37.87;;;;;;;3.12;59.56;101849.69;4955446;28;20432;-44
2021/12/12 00:47:17;;;;;;;75.70;37.60;;;;;;;3.15;59.25;101853.88;4955307;28;20436;-43
2021/12/12 00:50:09;;;;;;;70.10;35.47;;;;;;;3.18;58.78;101851.84;4955958;28;20443;-44
2021/12/12 00:52:37;;;;;;;79.60;38.13;;;;;;;3.18;58.33;101845.72;4955271;28;20468;-44
2021/12/12 00:55:06;;;;;;;78.93;38.23;;;;;;;3.19;58.65;101844.78;4955360;28;20458;-43
2021/12/12 00:57:34;;;;;;;86.60;40.83;;;;;;;3.23;58.21;101844.41;4954654;28;20464;-44
2021/12/12 01:00:04;;;;;;;83.93;41.83;;;;;;;3.26;58.77;101845.94;4955326;28;20435;-42
2021/12/12 01:02:32;;;;;;;95.77;41.63;;;;;;;3.28;59.46;101852.81;4954780;28;20466;-43
2021/12/12 01:05:02;;;;;;;86.03;39.27;;;;;;;3.31;59.80;101856.97;4955006;28;20475;-45
2021/12/12 01:07:36;;;;;;;79.17;40.70;;;;;;;3.28;61.97;101858.06;4954030;28;21108;-42
2021/12/12 01:10:23;;;;;;;106.07;44.20;;;;;;;3.29;61.52;101864.16;4954876;28;20432;-45
2021/12/12 01:12:54;;;;;;;86.20;39.73;;;;;;;3.29;62.51;101859.72;4954289;28;20479;-44
2021/12/12 01:15:26;;;;;;;95.20;40.37;;;;;;;3.29;63.39;101858.88;4954709;28;20455;-44
2021/12/12 01:18:02;;;;;;;86.73;37.63;;;;;;;3.25;64.12;101860.09;4954078;28;20468;-44
2021/12/12 01:20:36;;;;;;;77.30;34.70;;;;;;;3.26;64.97;101859.13;4954435;28;20431;-46
2021/12/12 01:23:10;;;;;;;85.83;37.53;;;;;;;3.24;64.42;101869.81;4954550;28;20475;-45
2021/12/12 01:25:44;;;;;;;79.97;35.73;;;;;;;3.26;64.39;101882.84;4957973;28;20507;-48
2021/12/12 01:28:13;;;;;;;67.47;34.40;;;;;;;3.26;63.65;101882.84;4957616;28;20827;-44
2021/12/12 01:30:41;;;;;;;77.87;37.63;;;;;;;3.24;64.59;101875.09;4958083;28;20436;-44
2021/12/12 01:33:10;;;;;;;80.47;37.40;;;;;;;3.25;63.74;101879.41;4957875;28;20847;-42
2021/12/12 01:35:41;;;;;;;67.80;33.80;;;;;;;3.28;63.61;101879.16;4957928;28;20443;-46
2021/12/12 01:40:58;;;;;;;70.93;34.60;;;;;;;3.29;63.96;101888.72;4957654;29;20420;-42
2021/12/12 01:43:29;;;;;;;54.83;31.70;;;;;;;3.32;63.83;101892.91;4957509;28;20471;-45
2021/12/12 01:46:01;;;;;;;65.27;31.57;;;;;;;3.31;64.19;101891.25;4957739;28;20878;-43
2021/12/12 01:48:35;;;;;;;70.87;32.20;;;;;;;3.30;64.33;101890.41;4957260;28;20867;-43
2021/12/12 01:51:08;;;;;;;61.90;32.63;;;;;;;3.31;64.16;101884.19;4957794;28;20442;-44
2021/12/12 01:53:41;;;;;;;66.47;31.70;;;;;;;3.29;64.79;101879.97;4957195;28;20467;-44
2021/12/12 01:56:14;;;;;;;57.50;32.17;;;;;;;3.30;64.49;101882.50;4957591;28;20475;-44
2021/12/12 01:58:45;;;;;;;57.43;31.77;;;;;;;3.29;63.87;101879.97;4957176;28;20463;-44
2021/12/12 02:01:17;;;;;;;56.90;30.37;;;;;;;3.30;64.34;101885.13;4957882;28;20444;-42
2021/12/12 02:03:48;;;;;;;66.30;32.20;;;;;;;3.29;64.25;101886.09;4957770;28;20523;-42
2021/12/12 02:06:17;;;;;;;66.77;30.93;;;;;;;3.26;64.24;101873.16;4957855;28;20801;-43
2021/12/12 02:08:50;;;;;;;69.90;31.30;;;;;;;3.28;64.58;101876.53;4956911;28;20464;-43
2021/12/12 02:11:28;;;;;;;66.60;32.90;;;;;;;3.26;64.70;101875.78;4957468;28;20435;-44
2021/12/12 02:13:59;;;;;;;60.43;32.20;;;;;;;3.26;65.23;101875.78;4956715;28;20827;-42
2021/12/12 02:16:28;;;;;;;59.47;33.63;;;;;;;3.29;65.00;101874.69;4956758;28;20435;-42
2021/12/12 02:18:59;;;;;;;62.10;32.70;;;;;;;3.29;65.66;101872.06;4955938;28;20502;-41
2021/12/12 02:21:34;;;;;;;71.13;33.90;;;;;;;3.30;65.18;101881.66;4956326;28;20442;-42
2021/12/12 02:35:07;;;;;;;64.03;32.43;;;;;;;3.29;65.37;101869.44;4956229;28;21158;-40
2021/12/12 02:35:45;;;;;;;71.10;31.13;;;;;;;3.23;64.69;101872.56;4955203;28;20442;-42
2021/12/12 02:38:16;;;;;;;62.90;31.33;;;;;;;3.24;64.49;101871.59;4955846;28;20475;-41
2021/12/12 02:40:47;;;;;;;73.00;32.90;;;;;;;3.24;65.15;101868.97;4955996;28;20424;-41
2021/12/12 02:43:19;;;;;;;71.97;33.53;;;;;;;3.27;65.00;101868.72;4955830;28;20464;-41
2021/12/12 02:45:51;;;;;;;74.87;34.97;;;;;;;3.26;65.81;101867.03;4955870;28;20435;-41
2021/12/12 02:48:20;;;;;;;82.87;35.83;;;;;;;3.29;65.65;101869.44;4955580;28;20557;-42
2021/12/12 02:50:51;;;;;;;59.67;33.00;;;;;;;3.29;66.66;101874.69;4955922;28;20436;-41
2021/12/12 02:53:24;;;;;;;88.27;36.40;;;;;;;3.25;66.51;101874.13;4955685;28;20479;-41
2021/12/12 02:55:57;;;;;;;77.67;35.23;;;;;;;3.29;65.92;101877.34;4955644;28;20926;-41
2021/12/12 02:58:26;;;;;;;68.23;33.57;;;;;;;3.30;65.61;101877.22;4955296;28;20472;-41
2021/12/12 03:01:02;;;;;;;76.43;34.70;;;;;;;3.30;66.58;101874.59;4955986;28;20443;-43
2021/12/12 03:03:35;;;;;;;76.63;34.97;;;;;;;3.31;66.65;101880.72;4955400;28;21023;-41
2021/12/12 03:06:04;;;;;;;72.47;34.57;;;;;;;3.29;67.71;101888.72;4955484;28;20483;-43
2021/12/12 03:08:31;;;;;;;79.07;37.10;;;;;;;3.26;68.80;101899.50;4955088;28;20474;-42
2021/12/12 03:11:01;;;;;;;74.03;33.67;;;;;;;3.24;68.50;101905.88;4955705;28;20436;-44
2021/12/12 03:13:29;;;;;;;71.80;34.40;;;;;;;3.25;68.60;101907.56;4955287;28;20470;-42
2021/12/12 03:15:57;;;;;;;71.93;33.67;;;;;;;3.24;68.19;101916.41;4955463;28;20432;-41
2021/12/12 03:18:29;;;;;;;63.97;34.97;;;;;;;3.24;67.76;101909.34;4954936;28;20464;-43
2021/12/12 03:21:00;;;;;;;71.63;35.27;;;;;;;3.27;67.59;101905.63;4955540;28;20440;-41
2021/12/12 03:23:34;;;;;;;73.17;32.60;;;;;;;3.29;67.69;101907.19;4955266;28;20482;-42
2021/12/12 03:26:06;;;;;;;65.53;34.83;;;;;;;3.28;68.12;101910.78;4955243;28;20921;-41
2021/12/12 03:28:36;;;;;;;88.87;37.47;;;;;;;3.29;68.17;101908.97;4954948;28;20472;-41
2021/12/12 03:31:08;;;;;;;74.60;33.17;;;;;;;3.31;67.69;101896.53;4955007;28;20447;-44
2021/12/12 03:33:36;;;;;;;75.60;34.77;;;;;;;3.30;68.46;101895.69;4955021;28;20464;-42
2021/12/12 03:36:07;;;;;;;73.90;35.40;;;;;;;3.31;68.55;101894.72;4955211;28;20440;-41
2021/12/12 03:38:38;;;;;;;62.63;35.20;;;;;;;3.30;68.69;101889.56;4954564;28;21007;-41
2021/12/12 03:41:13;;;;;;;70.23;35.50;;;;;;;3.31;69.38;101891.25;4954998;28;20424;-41
2021/12/12 03:43:42;;;;;;;78.97;35.27;;;;;;;3.33;68.87;101892.81;4954521;28;20459;-41
2021/12/12 03:46:13;;;;;;;69.47;34.73;;;;;;;3.35;69.14;101884.75;4954956;28;20468;-43
2021/12/12 03:48:44;;;;;;;64.83;33.87;;;;;;;3.35;69.62;101895.31;4954350;28;20518;-41
2021/12/12 03:51:21;;;;;;;71.20;32.83;;;;;;;3.33;70.18;101890.16;4954756;28;20428;-43
2021/12/12 03:53:49;;;;;;;77.60;36.47;;;;;;;3.35;69.65;101890.88;4954322;28;20468;-43
2021/12/12 03:56:19;;;;;;;82.63;37.83;;;;;;;3.37;69.54;101890.78;4954693;28;20440;-46
2021/12/12 03:58:48;;;;;;;73.90;35.67;;;;;;;3.40;69.95;101884.41;4954281;28;20472;-42
2021/12/12 04:01:19;;;;;;;75.07;34.33;;;;;;;3.41;70.16;101883.44;4954639;28;20436;-41
2021/12/12 04:03:52;;;;;;;73.00;35.53;;;;;;;3.40;71.67;101881.78;4954249;28;20452;-40
2021/12/12 04:06:24;;;;;;;68.00;32.97;;;;;;;3.40;71.29;101887.03;4954370;28;20447;-42
2021/12/12 04:08:53;;;;;;;69.60;33.73;;;;;;;3.41;71.08;101889.53;4953525;28;20467;-42
2021/12/12 04:11:25;;;;;;;78.00;34.10;;;;;;;3.41;70.55;101880.78;4954554;28;20436;-41
2021/12/12 04:13:55;;;;;;;74.53;34.27;;;;;;;3.42;71.37;101879.84;4954428;28;20830;-43
2021/12/12 04:16:25;;;;;;;85.27;36.57;;;;;;;3.40;71.31;101873.84;4954861;28;20443;-42
2021/12/12 04:18:53;;;;;;;75.27;36.57;;;;;;;3.41;71.46;101875.50;4954010;28;20471;-46
2021/12/12 04:21:22;;;;;;;75.17;36.00;;;;;;;3.38;71.94;101873.13;4954606;28;20435;-43
2021/12/12 04:23:51;;;;;;;71.40;33.80;;;;;;;3.35;71.60;101869.78;4954223;28;20463;-44
2021/12/12 04:26:24;;;;;;;76.03;35.97;;;;;;;3.37;70.21;101874.94;4954571;28;20432;-44
2021/12/12 04:28:59;;;;;;;77.50;34.30;;;;;;;3.39;70.12;101882.72;4953489;28;20459;-44
2021/12/12 04:31:28;;;;;;;75.37;33.73;;;;;;;3.41;69.45;101880.78;4952705;28;20436;-43
2021/12/12 04:33:59;;;;;;;73.90;34.03;;;;;;;3.42;69.06;101875.41;4951791;28;20475;-47
2021/12/12 04:36:29;;;;;;;60.27;34.70;;;;;;;3.38;69.61;101870.47;4956240;28;20421;-45
2021/12/12 04:39:02;;;;;;;60.93;30.40;;;;;;;3.38;69.34;101868.69;4955824;28;20850;-46
2021/12/12 04:41:31;;;;;;;55.50;30.10;;;;;;;3.40;68.80;101856.25;4960583;28;20428;-47
2021/12/12 04:43:59;;;;;;;62.53;32.10;;;;;;;3.41;68.60;101857.06;4966143;28;20454;-42
2021/12/12 04:46:38;;;;;;;57.00;28.93;;;;;;;3.41;68.78;101859.69;4973889;28;20435;-42
2021/12/12 04:51:58;;;;;;;57.60;27.10;;;;;;;3.42;67.99;101843.78;4961660;28;20813;-43
2021/12/12 04:54:32;;;;;;;53.37;28.50;;;;;;;3.42;68.25;101848.19;4972670;28;20438;-43
2021/12/12 04:57:06;;;;;;;56.13;27.43;;;;;;;3.43;67.49;101857.78;4972835;28;20453;-42
2021/12/12 04:59:41;;;;;;;55.07;27.00;;;;;;;3.45;67.10;101853.22;4973061;28;20435;-44
2021/12/12 05:02:14;;;;;;;65.33;30.73;;;;;;;3.46;66.67;101853.13;4965821;28;20474;-44
2021/12/12 05:04:48;;;;;;;51.53;29.83;;;;;;;3.46;67.00;101853.13;4953164;28;20429;-43
2021/12/12 05:07:19;;;;;;;60.33;28.53;;;;;;;3.45;67.84;101851.44;4953710;28;20480;-43
2021/12/12 05:09:51;;;;;;;63.20;29.40;;;;;;;3.45;67.27;101846.16;4952948;28;20435;-44
2021/12/12 05:12:26;;;;;;;59.73;28.83;;;;;;;3.48;66.66;101848.53;4953884;29;20456;-45
2021/12/12 05:14:57;;;;;;;57.30;27.70;;;;;;;3.50;66.78;101853.69;4953309;29;20427;-44
2021/12/12 05:17:30;;;;;;;54.67;27.33;;;;;;;3.50;66.83;101861.59;4953409;28;20466;-44
2021/12/12 05:20:00;;;;;;;60.77;28.30;;;;;;;3.53;66.88;101861.34;4957507;28;20777;-45
2021/12/12 05:22:34;;;;;;;59.77;28.50;;;;;;;3.51;67.58;101864.13;4947977;28;20551;-45
2021/12/12 05:25:06;;;;;;;57.63;28.43;;;;;;;3.52;67.30;101864.97;4972340;28;20442;-44
2021/12/12 05:27:38;;;;;;;58.50;30.70;;;;;;;3.50;67.10;101862.44;4962354;28;20478;-45
2021/12/12 05:30:11;;;;;;;67.63;32.27;;;;;;;3.52;66.69;101859.69;4953426;28;20542;-44
2021/12/12 05:32:41;;;;;;;54.53;28.73;;;;;;;3.54;66.69;101858.59;4928797;28;20467;-42
2021/12/12 05:35:12;;;;;;;67.70;33.37;;;;;;;3.52;66.68;101854.41;4929282;28;21015;-43
2021/12/12 05:37:41;;;;;;;54.80;32.00;;;;;;;3.54;66.11;101852.47;4973030;28;20431;-45
2021/12/12 05:40:12;;;;;;;62.20;33.07;;;;;;;3.56;65.88;101845.28;4929853;28;21027;-44
2021/12/12 05:42:41;;;;;;;55.70;32.63;;;;;;;3.55;65.51;101847.09;4952756;28;20450;-44
2021/12/12 05:45:10;;;;;;;57.73;32.10;;;;;;;3.55;65.92;101847.09;4928784;28;20463;-44
2021/12/12 05:47:38;;;;;;;67.87;36.10;;;;;;;3.56;65.10;101840.84;4929726;28;20502;-43
2021/12/12 05:50:09;;;;;;;74.07;33.83;;;;;;;3.58;65.45;101838.94;4953917;29;20432;-46
2021/12/12 05:52:37;;;;;;;61.53;32.43;;;;;;;3.59;64.87;101829.19;4953219;29;20468;-43
2021/12/12 05:55:07;;;;;;;65.67;31.90;;;;;;;3.56;65.70;101829.44;4953630;29;20436;-44
2021/12/12 05:57:35;;;;;;;59.33;34.60;;;;;;;3.55;65.28;101820.72;4929654;28;20463;-43
2021/12/12 06:00:10;;;;;;;59.43;34.40;;;;;;;3.57;64.51;101820.59;4929739;28;20467;-47
2021/12/12 06:02:38;;;;;;;60.50;32.80;;;;;;;3.56;64.72;101819.75;4953329;29;20486;-43
2021/12/12 06:05:07;;;;;;;69.40;35.33;;;;;;;3.56;64.92;101813.63;4952672;29;20853;-43
2021/12/12 06:07:36;;;;;;;62.97;35.77;;;;;;;3.56;64.36;101801.28;4953636;29;20806;-43
2021/12/12 06:10:08;;;;;;;64.00;34.80;;;;;;;3.56;64.49;101793.38;4953498;28;20436;-43
2021/12/12 06:12:37;;;;;;;59.30;35.17;;;;;;;3.55;64.31;101791.72;4956672;29;20478;-42
2021/12/12 06:15:10;;;;;;;63.90;34.60;;;;;;;3.53;64.28;101780.44;4955998;29;20435;-44
2021/12/12 06:17:38;;;;;;;65.60;34.17;;;;;;;3.55;63.53;101781.16;4909652;28;20833;-44
2021/12/12 06:20:09;;;;;;;61.27;32.87;;;;;;;3.55;63.17;101777.69;4957524;29;20790;-43
2021/12/12 06:22:37;;;;;;;59.40;33.87;;;;;;;3.56;62.37;101772.28;4956842;28;20834;-42
2021/12/12 06:25:06;;;;;;;66.60;38.07;;;;;;;3.54;63.09;101768.94;4956319;29;20432;-44
2021/12/12 06:27:35;;;;;;;67.13;36.53;;;;;;;3.51;61.95;101758.63;4942345;28;20463;-45
2021/12/12 06:30:11;;;;;;;74.20;40.10;;;;;;;3.50;61.35;101754.31;4973968;28;20431;-45
2021/12/12 06:32:39;;;;;;;70.97;37.40;;;;;;;3.51;61.03;101752.53;4951008;28;20455;-42
2021/12/12 06:35:08;;;;;;;67.30;37.20;;;;;;;3.49;60.47;101752.66;4975465;28;20441;-43
2021/12/12 06:37:36;;;;;;;61.23;36.07;;;;;;;3.52;59.95;101747.13;4951106;28;20835;-43
2021/12/12 06:40:07;;;;;;;69.83;35.93;;;;;;;3.49;60.32;101743.91;4955945;28;20443;-44
2021/12/12 06:42:34;;;;;;;70.77;36.10;;;;;;;3.51;60.22;101739.34;4952409;29;20468;-45
2021/12/12 06:45:04;;;;;;;74.40;36.90;;;;;;;3.49;59.75;101741.28;4931515;28;20470;-46
2021/12/12 06:47:33;;;;;;;74.93;35.20;;;;;;;3.49;58.70;101752.66;4956585;29;20941;-44
2021/12/12 06:50:01;;;;;;;67.03;37.20;;;;;;;3.47;58.44;101738.75;4932192;28;20559;-45
2021/12/12 06:52:30;;;;;;;74.67;38.20;;;;;;;3.49;57.66;101738.63;4931843;28;21368;-43
2021/12/12 06:54:58;;;;;;;71.93;38.10;;;;;;;3.50;57.64;101741.13;4956028;28;20464;-44
2021/12/12 06:57:26;;;;;;;78.93;37.57;;;;;;;3.52;57.64;101741.03;4955930;28;20440;-45
2021/12/12 06:59:54;;;;;;;62.73;34.43;;;;;;;3.46;57.13;101733.63;4956752;28;20455;-43
2021/12/12 07:02:23;;;;;;;65.63;37.07;;;;;;;3.50;55.06;101735.00;4956373;28;20810;-42
2021/12/12 07:04:53;;;;;;;68.57;36.50;;;;;;;3.49;54.37;101739.47;4955362;28;20487;-44
2021/12/12 07:07:21;;;;;;;72.90;37.57;;;;;;;3.51;54.48;101728.78;4931404;28;20464;-45
2021/12/12 07:09:51;;;;;;;71.53;35.87;;;;;;;3.53;54.41;101718.94;4934036;28;20476;-47
2021/12/12 07:12:22;;;;;;;65.50;36.73;;;;;;;3.55;54.10;101712.59;4955698;28;20879;-45
2021/12/12 07:14:52;;;;;;;73.30;36.23;;;;;;;3.53;54.10;101722.41;4954884;28;20436;-45
2021/12/12 07:17:20;;;;;;;60.63;33.63;;;;;;;3.56;53.56;101727.44;4955811;28;20443;-44
2021/12/12 07:19:48;;;;;;;80.63;36.10;;;;;;;3.58;53.38;101729.97;4954971;28;20463;-46
2021/12/12 07:22:18;;;;;;;73.60;37.97;;;;;;;3.59;53.11;101721.06;4930186;28;20452;-45
2021/12/12 07:24:46;;;;;;;68.00;35.97;;;;;;;3.60;52.63;101713.03;4954950;28;20432;-43
2021/12/12 07:27:15;;;;;;;63.57;36.50;;;;;;;3.60;53.10;101714.84;4955293;28;20451;-43
2021/12/12 07:29:44;;;;;;;69.27;35.17;;;;;;;3.61;52.54;101722.63;4955944;28;20487;-44
2021/12/12 07:32:12;;;;;;;72.33;34.47;;;;;;;3.63;51.89;101715.41;4949457;28;20468;-45
2021/12/12 07:34:40;;;;;;;59.43;32.67;;;;;;;3.66;52.17;101717.81;4951188;28;20620;-44
2021/12/12 07:37:09;;;;;;;60.20;33.90;;;;;;;3.69;51.49;101716.72;4955724;28;20440;-44
2021/12/12 07:39:42;;;;;;;64.53;36.50;;;;;;;3.70;52.18;101716.56;4955729;28;20439;-43
2021/12/12 07:42:10;;;;;;;54.40;30.97;;;;;;;3.70;51.87;101708.66;4953121;28;20455;-46
2021/12/12 07:44:40;;;;;;;68.03;33.20;;;;;;;3.71;51.49;101718.25;4936042;28;20461;-45
2021/12/12 07:47:10;;;;;;;70.43;35.50;;;;;;;3.76;51.50;101716.03;4937148;29;20805;-44
2021/12/12 07:49:45;;;;;;;65.37;34.70;;;;;;;3.75;51.30;101717.03;4936270;29;21017;-43
2021/12/12 07:52:17;;;;;;;62.73;34.47;;;;;;;3.78;50.85;101713.28;4936388;29;20470;-44
2021/12/12 07:54:49;;;;;;;62.80;29.93;;;;;;;3.80;50.77;101700.81;4935295;28;20896;-43
2021/12/12 07:57:17;;;;;;;62.13;34.70;;;;;;;3.79;50.29;101689.41;4936637;29;20441;-44
2021/12/12 07:59:46;;;;;;;61.40;34.50;;;;;;;3.82;49.43;101689.16;4935947;29;20472;-45
2021/12/12 08:02:16;;;;;;;62.53;36.27;;;;;;;3.83;49.72;101684.72;4936145;29;20463;-45
2021/12/12 08:04:44;;;;;;;71.03;34.63;;;;;;;3.85;49.01;101704.72;4934562;28;20889;-46
2021/12/12 08:07:14;;;;;;;69.17;34.00;;;;;;;3.85;48.79;101704.72;4936494;29;20509;-44
2021/12/12 08:09:43;;;;;;;57.70;33.93;;;;;;;3.88;47.52;101712.38;4936306;29;20476;-47
2021/12/12 08:12:15;;;;;;;57.33;33.60;;;;;;;3.92;47.30;101710.31;4911830;28;20491;-43
2021/12/12 08:14:44;;;;;;;56.83;32.23;;;;;;;3.95;47.17;101704.78;4911443;29;20464;-43
2021/12/12 08:17:13;;;;;;;61.27;34.17;;;;;;;3.97;46.78;101696.75;4912086;28;20824;-42
2021/12/12 08:19:41;;;;;;;62.93;31.87;;;;;;;4.01;47.30;101701.63;4912462;29;20460;-45
2021/12/12 08:22:11;;;;;;;56.33;29.87;;;;;;;4.03;46.57;101702.34;4935288;29;20482;-44
2021/12/12 08:24:40;;;;;;;51.00;30.60;;;;;;;4.07;45.87;101690.53;4934152;29;20433;-45
2021/12/12 08:27:10;;;;;;;44.83;27.20;;;;;;;4.07;45.93;101682.63;4935447;29;20571;-44
2021/12/12 08:29:40;;;;;;;52.10;27.30;;;;;;;4.11;45.66;101691.97;4927834;28;20517;-43
2021/12/12 08:32:11;;;;;;;41.13;25.67;;;;;;;4.16;45.57;101694.19;4953922;28;20456;-45
2021/12/12 08:34:59;;;;;;;42.60;24.40;;;;;;;4.18;45.06;101701.00;4953369;28;20444;-44
2021/12/12 08:37:28;;;;;;;45.40;24.73;;;;;;;4.20;45.27;101701.72;4929702;28;21043;-44
2021/12/12 08:39:56;;;;;;;39.37;24.10;;;;;;;4.24;45.18;101704.94;4953478;28;20439;-44
2021/12/12 08:42:26;;;;;;;36.47;21.80;;;;;;;4.25;44.87;101710.06;4925574;28;20480;-42
2021/12/12 08:44:57;;;;;;;46.77;23.17;;;;;;;4.30;44.69;101691.22;4953529;29;20440;-44
2021/12/12 08:47:25;;;;;;;36.13;23.30;;;;;;;4.33;44.68;101696.22;4929621;29;20464;-43
2021/12/12 08:49:54;;;;;;;32.23;21.07;;;;;;;4.36;44.88;101698.59;4953782;29;20476;-44
2021/12/12 08:52:27;;;;;;;32.17;22.27;;;;;;;4.39;45.88;101698.34;4953423;29;20472;-45
2021/12/12 08:54:55;;;;;;;38.07;21.27;;;;;;;4.38;45.84;101694.03;4928840;28;20470;-43
2021/12/12 08:57:33;;;;;;;36.87;21.17;;;;;;;4.43;45.65;101710.28;4953914;29;20459;-47
2021/12/12 09:00:23;;;;;;;26.33;19.27;;;;;;;4.44;45.76;101704.06;4953579;29;20956;-45
2021/12/12 09:02:53;;;;;;;29.63;20.00;;;;;;;4.47;46.27;101701.13;4953807;29;20468;-45
2021/12/12 09:05:26;;;;;;;27.47;18.40;;;;;;;4.48;46.98;101693.06;4952978;29;20864;-45
2021/12/12 09:08:19;;;;;;;25.17;17.67;;;;;;;4.54;46.90;101704.09;4952971;28;20432;-42
2021/12/12 09:10:51;;;;;;;27.40;18.87;;;;;;;4.57;47.35;101707.28;4954300;29;20468;-44
2021/12/12 09:13:23;;;;;;;33.30;19.20;;;;;;;4.59;48.57;101702.72;4953309;29;20456;-44
2021/12/12 09:15:59;;;;;;;23.83;16.60;;;;;;;4.60;49.72;101709.66;4953318;29;20428;-48
2021/12/12 09:18:31;;;;;;;28.33;18.23;;;;;;;4.60;50.01;101698.28;4953324;28;20470;-46
2021/12/12 09:21:06;;;;;;;23.20;17.90;;;;;;;4.57;51.29;101687.97;4953461;29;20454;-43
2021/12/12 09:23:40;;;;;;;26.63;16.43;;;;;;;4.61;51.22;101673.50;4952612;29;20472;-48
2021/12/12 09:26:12;;;;;;;26.80;15.40;;;;;;;4.65;50.63;101678.41;4953301;29;20923;-43
2021/12/12 09:28:46;;;;;;;22.33;15.80;;;;;;;4.66;51.06;101676.59;4953347;28;21024;-43
2021/12/12 09:31:22;;;;;;;22.20;14.77;;;;;;;4.64;52.39;101667.94;4953379;29;20483;-43
2021/12/12 09:33:55;;;;;;;18.27;14.07;;;;;;;4.67;53.06;101671.16;4952735;29;20471;-46
2021/12/12 09:36:29;;;;;;;17.00;13.23;;;;;;;4.64;53.41;101676.72;4965806;28;20427;-44
2021/12/12 09:39:07;;;;;;;17.20;12.53;;;;;;;4.69;53.16;101673.69;4965373;28;20463;-44
2021/12/12 09:42:00;;;;;;;14.80;12.80;;;;;;;4.73;54.01;101672.41;4964781;28;20430;-44
2021/12/12 09:44:51;;;;;;;15.10;13.20;;;;;;;4.74;53.99;101677.59;4951657;28;20448;-42
2021/12/12 09:47:46;;;;;;;16.17;13.77;;;;;;;4.78;53.56;101681.59;4956560;29;20431;-42
2021/12/12 09:53:33;;;;;;;14.83;11.77;;;;;;;4.82;54.31;101684.81;4955730;29;20470;-48
2021/12/12 09:56:05;;;;;;;14.83;11.30;;;;;;;4.87;53.85;101677.31;4955641;29;20950;-43
2021/12/12 09:58:44;;;;;;;17.63;12.80;;;;;;;4.96;53.66;101676.47;4956083;28;20479;-45
2021/12/12 10:01:19;;;;;;;13.90;11.40;;;;;;;4.96;55.10;101660.63;4956530;29;20497;-47
2021/12/12 10:04:15;;;;;;;11.10;10.07;;;;;;;5.00;55.28;101662.88;4955854;29;21040;-43
2021/12/12 10:06:49;;;;;;;12.30;10.67;;;;;;;5.06;56.11;101658.00;4956087;29;20432;-42
2021/12/12 10:09:22;;;;;;;13.00;9.90;;;;;;;5.08;56.93;101674.56;4957271;28;20472;-41
2021/12/12 10:11:58;;;;;;;15.10;11.33;;;;;;;5.06;58.94;101671.22;4956571;29;20475;-45
2021/12/12 10:14:35;;;;;;;9.93;8.93;;;;;;;5.06;59.34;101666.75;4930153;28;20451;-44
2021/12/12 10:17:10;;;;;;;10.77;9.53;;;;;;;5.09;58.63;101668.28;4955745;29;20432;-43
2021/12/12 10:19:46;;;;;;;10.70;9.03;;;;;;;5.03;59.97;101662.59;4955882;29;20432;-43
2021/12/12 10:22:23;;;;;;;9.50;8.70;;;;;;;5.09;58.61;101650.63;4930708;28;20478;-44
2021/12/12 10:24:59;;;;;;;10.40;9.43;;;;;;;5.09;58.59;101649.78;4955586;29;20846;-43
2021/12/12 10:27:40;;;;;;;9.83;9.07;;;;;;;5.12;58.68;101652.16;4955871;29;20946;-42
2021/12/12 10:30:14;;;;;;;10.73;9.33;;;;;;;5.10;60.25;101654.94;4955666;29;21014;-42
2021/12/12 10:32:55;;;;;;;10.13;9.33;;;;;;;5.10;59.44;101654.09;4955098;28;20491;-42
2021/12/12 10:35:29;;;;;;;8.93;8.23;;;;;;;5.11;58.23;101659.25;4938985;28;20454;-43
2021/12/12 10:38:00;;;;;;;11.73;9.00;;;;;;;5.12;57.53;101666.22;4993436;28;20955;-45
2021/12/12 10:40:30;;;;;;;9.40;8.60;;;;;;;5.12;57.79;101668.00;4974729;28;20450;-43
2021/12/12 10:43:03;;;;;;;9.47;8.57;;;;;;;5.13;56.96;101669.69;4973867;28;20443;-43
2021/12/12 10:45:35;;;;;;;10.70;9.70;;;;;;;5.15;55.81;101658.00;4973776;28;20462;-44
2021/12/12 10:48:07;;;;;;;9.90;9.20;;;;;;;5.19;55.20;101655.91;4950785;28;20968;-42
2021/12/12 10:50:47;;;;;;;10.23;9.07;;;;;;;5.19;56.04;101648.81;4951596;28;20482;-44
2021/12/12 10:53:25;;;;;;;10.93;9.10;;;;;;;5.21;55.93;101649.50;4973540;28;20477;-44
2021/12/12 10:55:59;;;;;;;10.53;9.43;;;;;;;5.23;56.40;101647.56;4949411;28;20998;-44
2021/12/12 10:58:33;;;;;;;10.27;9.33;;;;;;;5.25;55.20;101645.63;4974880;28;20427;-44
2021/12/12 11:01:11;;;;;;;9.10;8.47;;;;;;;5.26;55.97;101636.69;4974407;28;20435;-42
2021/12/12 11:03:45;;;;;;;10.30;9.33;;;;;;;5.22;56.02;101623.91;4973646;28;20506;-44
2021/12/12 11:06:17;;;;;;;11.03;9.93;;;;;;;5.23;55.41;101630.84;4973626;28;20474;-43
2021/12/12 11:08:56;;;;;;;9.90;9.00;;;;;;;5.24;54.93;101627.25;4950764;28;20481;-44
2021/12/12 11:11:27;;;;;;;10.53;9.50;;;;;;;5.26;54.49;101626.13;4974030;28;21078;-44
2021/12/12 11:14:15;;;;;;;9.63;8.93;;;;;;;5.28;53.52;101621.53;4973890;28;21011;-43
2021/12/12 11:16:47;;;;;;;10.53;9.60;;;;;;;5.21;53.74;101617.78;4974243;28;20443;-44
2021/12/12 11:19:17;;;;;;;10.27;9.27;;;;;;;5.25;51.80;101618.34;4950056;28;20474;-42
2021/12/12 11:21:55;;;;;;;10.60;9.80;;;;;;;5.28;50.95;101618.91;4974926;28;20427;-42
2021/12/12 11:24:27;;;;;;;10.97;9.50;;;;;;;5.30;51.10;101614.28;4973509;28;20442;-42
2021/12/12 11:27:00;;;;;;;9.70;8.97;;;;;;;5.31;51.66;101615.97;4974104;28;20431;-42
2021/12/12 11:29:30;;;;;;;10.20;9.40;;;;;;;5.32;50.25;101614.97;4973572;28;20481;-43
2021/12/12 11:32:03;;;;;;;9.53;8.83;;;;;;;5.35;48.69;101603.28;4973397;28;20482;-44
2021/12/12 11:34:45;;;;;;;8.83;8.23;;;;;;;5.38;48.46;101614.41;4949658;28;20443;-44
2021/12/12 11:37:18;;;;;;;10.23;9.43;;;;;;;5.36;48.59;101611.09;4929382;28;20460;-41
2021/12/12 11:39:51;;;;;;;9.63;8.93;;;;;;;5.41;49.74;101623.88;4921370;28;20481;-42
2021/12/12 11:42:24;;;;;;;8.60;7.90;;;;;;;5.42;49.44;101622.91;4969444;28;20840;-43
2021/12/12 11:45:01;;;;;;;9.73;8.83;;;;;;;5.40;49.74;101627.50;4953559;29;20436;-41
2021/12/12 11:47:45;;;;;;;9.43;8.60;;;;;;;5.43;48.81;101621.94;4954202;29;20881;-42
2021/12/12 11:50:22;;;;;;;8.73;8.13;;;;;;;5.46;48.75;101633.06;4943775;28;20464;-43
2021/12/12 11:52:58;;;;;;;8.87;8.17;;;;;;;5.48;48.59;101630.28;4952996;29;20475;-42
2021/12/12 11:55:30;;;;;;;9.40;8.70;;;;;;;5.48;48.65;101635.56;4929029;29;20463;-42
2021/12/12 11:58:05;;;;;;;8.60;7.90;;;;;;;5.48;48.27;101630.28;4954474;29;20438;-42
2021/12/12 12:00:37;;;;;;;8.50;7.90;;;;;;;5.50;47.53;101620.38;4954232;29;20435;-42